Castor Plunge, Louisiana
Current Conditions -  °F | °C
As of 10:53 AM on Tuesday 27 Jan 2015 (Local Time) from KAEX Reporting Station
Clear Clear  
Wind Chill: 66°   Ceiling: Unl
Heat Index: 66°   Visibility: 10mi
Dew Point: 42°   Wind: 0mph
Humidity: 42%   Direction: NA
Pressure: 30.15"   Gusts: NA
Location:  31.1516°N, 92.535°W
Report Text: KAEX 271653Z 00000KT 10SM CLR 19/06 A3015 RMK AO2 SLP213 T01890056
Loading
Personal Weather Stations






























Interactive Weather Map New forecast layout! Learn more

10-Day Weather Forecast

Advertisements
Track Severe Weather on mobile